LFSG/EPL METAR and TAF weather

Enter ICAO airport designator
Station Type Date Time Source
LFSG METAR 2021/04/18 02:30 UTC NOAA

LFSG 180230Z AUTO 02005KT CAVOK 04/00 Q1019


Station Type Date Time Source
LFSG Decoded METAR 2021/04/18 02:30 UTC NOAA

Station name not available
Apr 17, 2021 - 10:30 PM EDT / 2021.04.18 0230 UTC
Wind: from the NNE (020 degrees) at 6 MPH (5 KT):0
Visibility: greater than 7 mile(s):0
Temperature: 39 F (4 C)
Dew Point: 32 F (0 C)
Relative Humidity: 75%
Pressure (altimeter): 30.09 in. Hg (1019 hPa)
ob: LFSG 180230Z AUTO 02005KT CAVOK 04/00 Q1019
cycle: 2

Station Type Date Time Source
LFSG TAF UTC NOAA

Error!

Example: see airport list